sensor_id;sensor_type;location;lat;lon;timestamp;temperature;humidity
73643;DHT22;61938;48.652;9.292;2023-07-13T00:02:00;19.60;99.90
73643;DHT22;61938;48.652;9.292;2023-07-13T00:04:26;19.50;99.90
73643;DHT22;61938;48.652;9.292;2023-07-13T00:06:53;19.50;99.90
73643;DHT22;61938;48.652;9.292;2023-07-13T00:09:19;19.50;99.90
73643;DHT22;61938;48.652;9.292;2023-07-13T00:11:45;19.50;99.90
73643;DHT22;61938;48.652;9.292;2023-07-13T00:14:14;19.50;99.90
73643;DHT22;61938;48.652;9.292;2023-07-13T00:16:41;19.40;99.90
73643;DHT22;61938;48.652;9.292;2023-07-13T00:19:10;19.50;99.90
73643;DHT22;61938;48.652;9.292;2023-07-13T00:21:35;19.30;99.90
73643;DHT22;61938;48.652;9.292;2023-07-13T00:24:01;19.30;99.90
73643;DHT22;61938;48.652;9.292;2023-07-13T00:26:27;19.20;99.90
73643;DHT22;61938;48.652;9.292;2023-07-13T00:28:52;19.20;99.90
73643;DHT22;61938;48.652;9.292;2023-07-13T00:31:18;19.10;99.90
73643;DHT22;61938;48.652;9.292;2023-07-13T00:33:44;19.10;99.90
73643;DHT22;61938;48.652;9.292;2023-07-13T00:36:10;19.00;99.90
73643;DHT22;61938;48.652;9.292;2023-07-13T00:38:36;19.00;99.90
73643;DHT22;61938;48.652;9.292;2023-07-13T00:41:03;18.90;99.90
73643;DHT22;61938;48.652;9.292;2023-07-13T00:43:29;18.90;99.90
73643;DHT22;61938;48.652;9.292;2023-07-13T00:48:27;18.90;99.90
73643;DHT22;61938;48.652;9.292;2023-07-13T00:50:56;18.80;99.90
73643;DHT22;61938;48.652;9.292;2023-07-13T00:53:22;18.80;99.90
73643;DHT22;61938;48.652;9.292;2023-07-13T00:55:51;18.70;99.90
73643;DHT22;61938;48.652;9.292;2023-07-13T00:58:17;18.60;99.90
73643;DHT22;61938;48.652;9.292;2023-07-13T01:00:42;18.60;99.90
73643;DHT22;61938;48.652;9.292;2023-07-13T01:03:08;18.50;99.90
73643;DHT22;61938;48.652;9.292;2023-07-13T01:05:35;18.50;99.90
73643;DHT22;61938;48.652;9.292;2023-07-13T01:08:01;18.40;99.90
73643;DHT22;61938;48.652;9.292;2023-07-13T01:10:28;18.30;99.90
73643;DHT22;61938;48.652;9.292;2023-07-13T01:12:54;18.30;99.90
73643;DHT22;61938;48.652;9.292;2023-07-13T01:15:53;18.20;99.90
73643;DHT22;61938;48.652;9.292;2023-07-13T01:18:22;18.10;99.90
73643;DHT22;61938;48.652;9.292;2023-07-13T01:20:57;18.10;99.90
73643;DHT22;61938;48.652;9.292;2023-07-13T01:23:24;18.00;99.90
73643;DHT22;61938;48.652;9.292;2023-07-13T01:25:50;17.90;99.90
73643;DHT22;61938;48.652;9.292;2023-07-13T01:28:16;17.90;99.90
73643;DHT22;61938;48.652;9.292;2023-07-13T01:30:46;17.90;99.90
73643;DHT22;61938;48.652;9.292;2023-07-13T01:33:14;17.80;99.90
73643;DHT22;61938;48.652;9.292;2023-07-13T01:35:41;17.80;99.90
73643;DHT22;61938;48.652;9.292;2023-07-13T01:38:06;17.80;99.90
73643;DHT22;61938;48.652;9.292;2023-07-13T01:40:34;17.80;99.90
73643;DHT22;61938;48.652;9.292;2023-07-13T01:43:00;17.70;99.90
73643;DHT22;61938;48.652;9.292;2023-07-13T01:45:25;17.70;99.90
73643;DHT22;61938;48.652;9.292;2023-07-13T01:47:51;17.70;99.90
73643;DHT22;61938;48.652;9.292;2023-07-13T01:50:16;17.70;99.90
73643;DHT22;61938;48.652;9.292;2023-07-13T01:52:42;17.70;99.90
73643;DHT22;61938;48.652;9.292;2023-07-13T01:55:08;17.60;99.90
73643;DHT22;61938;48.652;9.292;2023-07-13T01:57:34;17.60;99.90
73643;DHT22;61938;48.652;9.292;2023-07-13T02:00:03;17.60;99.90
73643;DHT22;61938;48.652;9.292;2023-07-13T02:02:30;17.60;99.90
73643;DHT22;61938;48.652;9.292;2023-07-13T02:04:55;17.50;99.90
73643;DHT22;61938;48.652;9.292;2023-07-13T02:07:21;17.50;99.90
73643;DHT22;61938;48.652;9.292;2023-07-13T02:09:47;17.50;99.90
73643;DHT22;61938;48.652;9.292;2023-07-13T02:12:12;17.50;99.90
73643;DHT22;61938;48.652;9.292;2023-07-13T02:14:38;17.50;99.90
73643;DHT22;61938;48.652;9.292;2023-07-13T02:17:04;17.60;99.90
73643;DHT22;61938;48.652;9.292;2023-07-13T02:19:30;17.60;99.90
73643;DHT22;61938;48.652;9.292;2023-07-13T02:21:55;17.60;99.90
73643;DHT22;61938;48.652;9.292;2023-07-13T02:24:21;17.60;99.90
73643;DHT22;61938;48.652;9.292;2023-07-13T02:26:46;17.60;99.90
73643;DHT22;61938;48.652;9.292;2023-07-13T02:29:12;17.50;99.90
73643;DHT22;61938;48.652;9.292;2023-07-13T02:31:37;17.40;99.90
73643;DHT22;61938;48.652;9.292;2023-07-13T02:34:03;17.40;99.90
73643;DHT22;61938;48.652;9.292;2023-07-13T02:36:30;17.40;99.90
73643;DHT22;61938;48.652;9.292;2023-07-13T02:38:55;17.40;99.90
73643;DHT22;61938;48.652;9.292;2023-07-13T02:41:21;17.30;99.90
73643;DHT22;61938;48.652;9.292;2023-07-13T02:43:48;17.30;99.90
73643;DHT22;61938;48.652;9.292;2023-07-13T02:46:14;17.30;99.90
73643;DHT22;61938;48.652;9.292;2023-07-13T02:48:39;17.30;99.90
73643;DHT22;61938;48.652;9.292;2023-07-13T02:51:06;17.30;99.90
73643;DHT22;61938;48.652;9.292;2023-07-13T02:53:31;17.20;99.90
73643;DHT22;61938;48.652;9.292;2023-07-13T02:55:57;17.10;99.90
73643;DHT22;61938;48.652;9.292;2023-07-13T02:58:23;17.10;99.90
73643;DHT22;61938;48.652;9.292;2023-07-13T03:00:49;17.00;99.90
73643;DHT22;61938;48.652;9.292;2023-07-13T03:03:16;17.00;99.90
73643;DHT22;61938;48.652;9.292;2023-07-13T03:05:43;16.90;99.90
73643;DHT22;61938;48.652;9.292;2023-07-13T03:08:10;16.70;99.90
73643;DHT22;61938;48.652;9.292;2023-07-13T03:10:36;16.60;99.90
73643;DHT22;61938;48.652;9.292;2023-07-13T03:13:02;16.60;99.90
73643;DHT22;61938;48.652;9.292;2023-07-13T03:15:27;16.50;99.90
73643;DHT22;61938;48.652;9.292;2023-07-13T03:17:53;16.50;99.90
73643;DHT22;61938;48.652;9.292;2023-07-13T03:20:18;16.50;99.90
73643;DHT22;61938;48.652;9.292;2023-07-13T03:22:44;16.50;99.90
73643;DHT22;61938;48.652;9.292;2023-07-13T03:25:10;16.60;99.90
73643;DHT22;61938;48.652;9.292;2023-07-13T03:27:36;16.70;99.90
73643;DHT22;61938;48.652;9.292;2023-07-13T03:30:03;16.70;99.90
73643;DHT22;61938;48.652;9.292;2023-07-13T03:32:29;16.70;99.90
73643;DHT22;61938;48.652;9.292;2023-07-13T03:34:54;16.70;99.90
73643;DHT22;61938;48.652;9.292;2023-07-13T03:37:20;16.70;99.90
73643;DHT22;61938;48.652;9.292;2023-07-13T03:39:46;16.70;99.90
73643;DHT22;61938;48.652;9.292;2023-07-13T03:42:12;16.80;99.90
73643;DHT22;61938;48.652;9.292;2023-07-13T03:44:39;16.80;99.90
73643;DHT22;61938;48.652;9.292;2023-07-13T03:47:05;16.90;99.90
73643;DHT22;61938;48.652;9.292;2023-07-13T03:49:31;17.00;99.90
73643;DHT22;61938;48.652;9.292;2023-07-13T03:51:57;17.00;99.90
73643;DHT22;61938;48.652;9.292;2023-07-13T03:54:22;17.00;99.90
73643;DHT22;61938;48.652;9.292;2023-07-13T03:56:48;17.00;99.90
73643;DHT22;61938;48.652;9.292;2023-07-13T03:59:13;17.00;99.90
73643;DHT22;61938;48.652;9.292;2023-07-13T04:01:39;17.10;99.90
73643;DHT22;61938;48.652;9.292;2023-07-13T04:04:04;17.20;99.90
73643;DHT22;61938;48.652;9.292;2023-07-13T04:06:30;17.20;99.90
73643;DHT22;61938;48.652;9.292;2023-07-13T04:08:58;17.30;99.90
73643;DHT22;61938;48.652;9.292;2023-07-13T04:11:29;17.30;99.90
73643;DHT22;61938;48.652;9.292;2023-07-13T04:13:56;17.30;99.90
73643;DHT22;61938;48.652;9.292;2023-07-13T04:16:22;17.40;99.90
73643;DHT22;61938;48.652;9.292;2023-07-13T04:18:48;17.50;99.90
73643;DHT22;61938;48.652;9.292;2023-07-13T04:21:15;17.50;99.90
73643;DHT22;61938;48.652;9.292;2023-07-13T04:23:41;17.50;99.90
73643;DHT22;61938;48.652;9.292;2023-07-13T04:26:07;17.60;99.90
73643;DHT22;61938;48.652;9.292;2023-07-13T04:28:32;17.60;99.90
73643;DHT22;61938;48.652;9.292;2023-07-13T04:30:58;17.60;99.90
73643;DHT22;61938;48.652;9.292;2023-07-13T04:33:24;17.70;99.90
73643;DHT22;61938;48.652;9.292;2023-07-13T04:35:54;17.70;99.90
73643;DHT22;61938;48.652;9.292;2023-07-13T04:38:25;17.70;99.90
73643;DHT22;61938;48.652;9.292;2023-07-13T04:40:59;17.80;99.90
73643;DHT22;61938;48.652;9.292;2023-07-13T04:43:25;17.90;99.90
73643;DHT22;61938;48.652;9.292;2023-07-13T04:45:51;17.90;99.90
73643;DHT22;61938;48.652;9.292;2023-07-13T04:48:17;17.90;99.90
73643;DHT22;61938;48.652;9.292;2023-07-13T04:50:43;18.00;99.90
73643;DHT22;61938;48.652;9.292;2023-07-13T04:53:09;17.90;99.90
73643;DHT22;61938;48.652;9.292;2023-07-13T04:55:36;18.00;99.90
73643;DHT22;61938;48.652;9.292;2023-07-13T04:58:01;18.00;99.90
73643;DHT22;61938;48.652;9.292;2023-07-13T05:00:28;18.00;99.90
73643;DHT22;61938;48.652;9.292;2023-07-13T05:02:55;18.00;99.90
73643;DHT22;61938;48.652;9.292;2023-07-13T05:05:21;18.00;99.90
73643;DHT22;61938;48.652;9.292;2023-07-13T05:07:46;18.00;99.90
73643;DHT22;61938;48.652;9.292;2023-07-13T05:10:12;18.00;99.90
73643;DHT22;61938;48.652;9.292;2023-07-13T05:12:37;18.00;99.90
73643;DHT22;61938;48.652;9.292;2023-07-13T05:15:03;18.10;99.90
73643;DHT22;61938;48.652;9.292;2023-07-13T05:17:29;18.10;99.90
73643;DHT22;61938;48.652;9.292;2023-07-13T05:19:55;18.20;99.90
73643;DHT22;61938;48.652;9.292;2023-07-13T05:22:20;18.20;99.90
73643;DHT22;61938;48.652;9.292;2023-07-13T05:24:46;18.30;99.90
73643;DHT22;61938;48.652;9.292;2023-07-13T05:27:11;18.30;99.90
73643;DHT22;61938;48.652;9.292;2023-07-13T05:29:37;18.30;99.90
73643;DHT22;61938;48.652;9.292;2023-07-13T05:32:03;18.30;99.90
73643;DHT22;61938;48.652;9.292;2023-07-13T05:34:29;18.30;99.90
73643;DHT22;61938;48.652;9.292;2023-07-13T05:36:54;18.30;99.90
73643;DHT22;61938;48.652;9.292;2023-07-13T05:39:20;18.40;99.90
73643;DHT22;61938;48.652;9.292;2023-07-13T05:41:46;18.40;99.90
73643;DHT22;61938;48.652;9.292;2023-07-13T05:44:11;18.40;99.90
73643;DHT22;61938;48.652;9.292;2023-07-13T05:46:37;18.40;99.90
73643;DHT22;61938;48.652;9.292;2023-07-13T05:49:02;18.40;99.90
73643;DHT22;61938;48.652;9.292;2023-07-13T05:51:28;18.40;99.90
73643;DHT22;61938;48.652;9.292;2023-07-13T05:53:54;18.50;99.90
73643;DHT22;61938;48.652;9.292;2023-07-13T05:56:19;18.60;99.90
73643;DHT22;61938;48.652;9.292;2023-07-13T05:58:45;18.60;99.90
73643;DHT22;61938;48.652;9.292;2023-07-13T06:01:13;18.60;99.90
73643;DHT22;61938;48.652;9.292;2023-07-13T06:03:39;18.60;99.90
73643;DHT22;61938;48.652;9.292;2023-07-13T06:06:06;18.60;99.90
73643;DHT22;61938;48.652;9.292;2023-07-13T06:08:32;18.60;99.90
73643;DHT22;61938;48.652;9.292;2023-07-13T06:11:03;18.60;99.90
73643;DHT22;61938;48.652;9.292;2023-07-13T06:13:29;18.50;99.90
73643;DHT22;61938;48.652;9.292;2023-07-13T06:15:54;18.60;99.90
73643;DHT22;61938;48.652;9.292;2023-07-13T06:18:20;18.50;99.90
73643;DHT22;61938;48.652;9.292;2023-07-13T06:20:45;18.60;99.90
73643;DHT22;61938;48.652;9.292;2023-07-13T06:23:11;18.80;99.90
73643;DHT22;61938;48.652;9.292;2023-07-13T06:25:36;18.90;99.90
73643;DHT22;61938;48.652;9.292;2023-07-13T06:28:02;19.10;99.90
73643;DHT22;61938;48.652;9.292;2023-07-13T06:30:27;19.20;99.90
73643;DHT22;61938;48.652;9.292;2023-07-13T06:32:53;19.30;99.90
73643;DHT22;61938;48.652;9.292;2023-07-13T06:35:19;19.60;99.90
73643;DHT22;61938;48.652;9.292;2023-07-13T06:37:44;19.60;99.90
73643;DHT22;61938;48.652;9.292;2023-07-13T06:40:10;19.60;99.90
73643;DHT22;61938;48.652;9.292;2023-07-13T06:42:36;19.50;99.90
73643;DHT22;61938;48.652;9.292;2023-07-13T06:45:01;19.40;99.90
73643;DHT22;61938;48.652;9.292;2023-07-13T06:47:27;19.50;99.90
73643;DHT22;61938;48.652;9.292;2023-07-13T06:49:52;19.80;99.90
73643;DHT22;61938;48.652;9.292;2023-07-13T06:52:18;20.10;99.90
73643;DHT22;61938;48.652;9.292;2023-07-13T06:54:43;20.30;99.90
73643;DHT22;61938;48.652;9.292;2023-07-13T06:57:09;20.50;99.90
73643;DHT22;61938;48.652;9.292;2023-07-13T06:59:35;20.70;99.90
73643;DHT22;61938;48.652;9.292;2023-07-13T07:02:00;20.90;99.90
73643;DHT22;61938;48.652;9.292;2023-07-13T07:04:26;21.00;99.90
73643;DHT22;61938;48.652;9.292;2023-07-13T07:06:51;21.20;99.90
73643;DHT22;61938;48.652;9.292;2023-07-13T07:09:17;21.30;99.90
73643;DHT22;61938;48.652;9.292;2023-07-13T07:11:42;21.60;99.90
73643;DHT22;61938;48.652;9.292;2023-07-13T07:14:08;21.80;99.90
73643;DHT22;61938;48.652;9.292;2023-07-13T07:16:33;22.20;99.90
73643;DHT22;61938;48.652;9.292;2023-07-13T07:18:59;22.40;99.90
73643;DHT22;61938;48.652;9.292;2023-07-13T07:21:24;22.40;99.90
73643;DHT22;61938;48.652;9.292;2023-07-13T07:23:51;22.40;99.90
73643;DHT22;61938;48.652;9.292;2023-07-13T07:26:17;22.60;99.90
73643;DHT22;61938;48.652;9.292;2023-07-13T07:28:43;22.70;99.90
73643;DHT22;61938;48.652;9.292;2023-07-13T07:31:09;22.80;99.90
73643;DHT22;61938;48.652;9.292;2023-07-13T07:33:35;23.00;99.90
73643;DHT22;61938;48.652;9.292;2023-07-13T07:36:01;22.90;99.90
73643;DHT22;61938;48.652;9.292;2023-07-13T07:38:26;22.90;99.90
73643;DHT22;61938;48.652;9.292;2023-07-13T07:40:52;23.10;99.90
73643;DHT22;61938;48.652;9.292;2023-07-13T07:43:18;23.50;99.90
73643;DHT22;61938;48.652;9.292;2023-07-13T07:45:44;24.00;99.90
73643;DHT22;61938;48.652;9.292;2023-07-13T07:48:10;24.00;99.90
73643;DHT22;61938;48.652;9.292;2023-07-13T07:50:36;24.00;99.90
73643;DHT22;61938;48.652;9.292;2023-07-13T07:53:02;24.10;99.90
73643;DHT22;61938;48.652;9.292;2023-07-13T07:55:28;24.10;99.90
73643;DHT22;61938;48.652;9.292;2023-07-13T07:57:55;23.90;99.90
73643;DHT22;61938;48.652;9.292;2023-07-13T08:00:21;23.70;99.10
73643;DHT22;61938;48.652;9.292;2023-07-13T08:02:47;24.00;99.90
73643;DHT22;61938;48.652;9.292;2023-07-13T08:05:13;24.20;99.90
73643;DHT22;61938;48.652;9.292;2023-07-13T08:07:39;24.60;97.90
73643;DHT22;61938;48.652;9.292;2023-07-13T08:10:06;24.20;98.50
73643;DHT22;61938;48.652;9.292;2023-07-13T08:12:36;24.00;98.50
73643;DHT22;61938;48.652;9.292;2023-07-13T08:15:02;23.80;98.70
73643;DHT22;61938;48.652;9.292;2023-07-13T08:17:28;24.30;97.90
73643;DHT22;61938;48.652;9.292;2023-07-13T08:19:53;24.50;96.50
73643;DHT22;61938;48.652;9.292;2023-07-13T08:22:19;24.50;95.00
73643;DHT22;61938;48.652;9.292;2023-07-13T08:24:45;24.80;95.10
73643;DHT22;61938;48.652;9.292;2023-07-13T08:27:11;24.70;93.70
73643;DHT22;61938;48.652;9.292;2023-07-13T08:29:37;24.90;92.70
73643;DHT22;61938;48.652;9.292;2023-07-13T08:32:05;24.50;94.50
73643;DHT22;61938;48.652;9.292;2023-07-13T08:34:31;24.60;94.80
73643;DHT22;61938;48.652;9.292;2023-07-13T08:36:56;25.10;95.60
73643;DHT22;61938;48.652;9.292;2023-07-13T08:39:22;25.50;93.80
73643;DHT22;61938;48.652;9.292;2023-07-13T08:41:52;25.50;94.10
73643;DHT22;61938;48.652;9.292;2023-07-13T08:44:30;25.50;92.60
73643;DHT22;61938;48.652;9.292;2023-07-13T08:47:02;25.30;93.00
73643;DHT22;61938;48.652;9.292;2023-07-13T08:49:28;25.00;93.50
73643;DHT22;61938;48.652;9.292;2023-07-13T08:52:02;25.20;93.60
73643;DHT22;61938;48.652;9.292;2023-07-13T08:54:43;25.50;93.90
73643;DHT22;61938;48.652;9.292;2023-07-13T08:57:13;25.50;92.60
73643;DHT22;61938;48.652;9.292;2023-07-13T08:59:39;25.70;92.50
73643;DHT22;61938;48.652;9.292;2023-07-13T09:02:15;25.80;90.90
73643;DHT22;61938;48.652;9.292;2023-07-13T09:04:49;25.70;91.30
73643;DHT22;61938;48.652;9.292;2023-07-13T09:07:30;25.60;90.30
73643;DHT22;61938;48.652;9.292;2023-07-13T09:15:23;25.40;89.70
73643;DHT22;61938;48.652;9.292;2023-07-13T09:17:51;25.10;88.10
73643;DHT22;61938;48.652;9.292;2023-07-13T09:20:25;25.20;91.60
73643;DHT22;61938;48.652;9.292;2023-07-13T09:22:52;25.00;85.40
73643;DHT22;61938;48.652;9.292;2023-07-13T09:25:31;25.60;90.90
73643;DHT22;61938;48.652;9.292;2023-07-13T09:28:20;25.80;88.90
73643;DHT22;61938;48.652;9.292;2023-07-13T09:31:04;25.40;87.00
73643;DHT22;61938;48.652;9.292;2023-07-13T09:33:31;25.70;91.00
73643;DHT22;61938;48.652;9.292;2023-07-13T09:35:57;26.10;86.80
73643;DHT22;61938;48.652;9.292;2023-07-13T09:38:25;26.30;85.70
73643;DHT22;61938;48.652;9.292;2023-07-13T09:41:04;26.10;85.30
73643;DHT22;61938;48.652;9.292;2023-07-13T09:43:34;26.20;84.20
73643;DHT22;61938;48.652;9.292;2023-07-13T09:46:00;26.30;86.20
73643;DHT22;61938;48.652;9.292;2023-07-13T09:48:34;26.50;86.00
73643;DHT22;61938;48.652;9.292;2023-07-13T09:51:07;26.60;83.60
73643;DHT22;61938;48.652;9.292;2023-07-13T09:53:38;26.40;82.50
73643;DHT22;61938;48.652;9.292;2023-07-13T09:56:03;25.80;81.40
73643;DHT22;61938;48.652;9.292;2023-07-13T09:58:30;25.60;82.00
73643;DHT22;61938;48.652;9.292;2023-07-13T10:01:02;25.00;81.60
73643;DHT22;61938;48.652;9.292;2023-07-13T10:03:33;24.80;84.50
73643;DHT22;61938;48.652;9.292;2023-07-13T10:06:19;24.80;86.80
73643;DHT22;61938;48.652;9.292;2023-07-13T10:08:46;25.60;86.70
73643;DHT22;61938;48.652;9.292;2023-07-13T10:11:23;26.00;84.30
73643;DHT22;61938;48.652;9.292;2023-07-13T10:13:56;26.30;85.40
73643;DHT22;61938;48.652;9.292;2023-07-13T10:16:26;26.60;77.20
73643;DHT22;61938;48.652;9.292;2023-07-13T10:19:06;26.50;82.00
73643;DHT22;61938;48.652;9.292;2023-07-13T10:21:57;26.50;80.60
73643;DHT22;61938;48.652;9.292;2023-07-13T10:24:27;26.60;79.50
73643;DHT22;61938;48.652;9.292;2023-07-13T10:27:12;27.10;79.40
73643;DHT22;61938;48.652;9.292;2023-07-13T10:29:41;27.00;76.80
73643;DHT22;61938;48.652;9.292;2023-07-13T10:32:11;26.60;75.00
73643;DHT22;61938;48.652;9.292;2023-07-13T10:34:37;26.10;76.00
73643;DHT22;61938;48.652;9.292;2023-07-13T10:37:05;26.10;76.40
73643;DHT22;61938;48.652;9.292;2023-07-13T10:39:34;26.50;76.40
73643;DHT22;61938;48.652;9.292;2023-07-13T10:42:03;27.00;76.80
73643;DHT22;61938;48.652;9.292;2023-07-13T10:44:31;27.30;78.50
73643;DHT22;61938;48.652;9.292;2023-07-13T10:47:04;27.20;77.80
73643;DHT22;61938;48.652;9.292;2023-07-13T10:49:32;27.30;81.00
73643;DHT22;61938;48.652;9.292;2023-07-13T10:51:58;27.00;75.70
73643;DHT22;61938;48.652;9.292;2023-07-13T10:54:33;26.60;74.20
73643;DHT22;61938;48.652;9.292;2023-07-13T10:59:46;26.10;78.30
73643;DHT22;61938;48.652;9.292;2023-07-13T11:02:25;25.80;77.10
73643;DHT22;61938;48.652;9.292;2023-07-13T11:04:53;26.00;81.20
73643;DHT22;61938;48.652;9.292;2023-07-13T11:07:30;26.30;79.20
73643;DHT22;61938;48.652;9.292;2023-07-13T11:09:59;26.40;79.30
73643;DHT22;61938;48.652;9.292;2023-07-13T11:20:21;27.60;74.00
73643;DHT22;61938;48.652;9.292;2023-07-13T11:23:36;27.70;76.40
73643;DHT22;61938;48.652;9.292;2023-07-13T11:25:36;28.10;75.50
73643;DHT22;61938;48.652;9.292;2023-07-13T11:35:57;27.70;73.40
73643;DHT22;61938;48.652;9.292;2023-07-13T11:38:45;28.20;73.10
73643;DHT22;61938;48.652;9.292;2023-07-13T11:41:26;28.60;69.60
73643;DHT22;61938;48.652;9.292;2023-07-13T11:44:06;28.10;71.40
73643;DHT22;61938;48.652;9.292;2023-07-13T11:46:32;27.40;70.30
73643;DHT22;61938;48.652;9.292;2023-07-13T11:48:58;27.30;72.40
73643;DHT22;61938;48.652;9.292;2023-07-13T11:51:31;27.30;73.80
73643;DHT22;61938;48.652;9.292;2023-07-13T11:54:03;26.80;74.40
73643;DHT22;61938;48.652;9.292;2023-07-13T11:56:29;26.50;76.10
73643;DHT22;61938;48.652;9.292;2023-07-13T11:58:57;26.90;76.20
73643;DHT22;61938;48.652;9.292;2023-07-13T12:01:30;27.30;75.90
73643;DHT22;61938;48.652;9.292;2023-07-13T12:04:02;27.60;77.60
73643;DHT22;61938;48.652;9.292;2023-07-13T12:06:33;27.60;70.20
73643;DHT22;61938;48.652;9.292;2023-07-13T12:09:08;27.70;71.00
73643;DHT22;61938;48.652;9.292;2023-07-13T12:11:39;27.60;70.40
73643;DHT22;61938;48.652;9.292;2023-07-13T12:14:05;27.20;69.80
73643;DHT22;61938;48.652;9.292;2023-07-13T12:16:32;27.20;71.00
73643;DHT22;61938;48.652;9.292;2023-07-13T12:19:00;27.50;74.30
73643;DHT22;61938;48.652;9.292;2023-07-13T12:21:31;27.80;72.80
73643;DHT22;61938;48.652;9.292;2023-07-13T12:23:57;27.20;72.30
73643;DHT22;61938;48.652;9.292;2023-07-13T12:26:23;26.80;70.90
73643;DHT22;61938;48.652;9.292;2023-07-13T12:28:52;26.80;73.80
73643;DHT22;61938;48.652;9.292;2023-07-13T12:31:30;26.60;73.10
73643;DHT22;61938;48.652;9.292;2023-07-13T12:34:06;26.40;70.30
73643;DHT22;61938;48.652;9.292;2023-07-13T12:36:35;26.70;74.50
73643;DHT22;61938;48.652;9.292;2023-07-13T12:39:11;26.90;72.10
73643;DHT22;61938;48.652;9.292;2023-07-13T12:41:38;26.80;73.90
73643;DHT22;61938;48.652;9.292;2023-07-13T12:44:07;26.80;70.70
73643;DHT22;61938;48.652;9.292;2023-07-13T12:46:34;26.40;71.10
73643;DHT22;61938;48.652;9.292;2023-07-13T12:49:00;26.20;72.80
73643;DHT22;61938;48.652;9.292;2023-07-13T12:51:26;26.20;73.70
73643;DHT22;61938;48.652;9.292;2023-07-13T12:53:58;26.90;78.80
73643;DHT22;61938;48.652;9.292;2023-07-13T12:56:33;27.50;72.50
73643;DHT22;61938;48.652;9.292;2023-07-13T12:59:03;27.50;69.50
73643;DHT22;61938;48.652;9.292;2023-07-13T13:01:33;27.00;66.60
73643;DHT22;61938;48.652;9.292;2023-07-13T13:04:02;26.60;70.30
73643;DHT22;61938;48.652;9.292;2023-07-13T13:06:34;26.70;72.40
73643;DHT22;61938;48.652;9.292;2023-07-13T13:09:01;26.90;71.30
73643;DHT22;61938;48.652;9.292;2023-07-13T13:11:28;26.90;72.00
73643;DHT22;61938;48.652;9.292;2023-07-13T13:13:54;26.60;74.10
73643;DHT22;61938;48.652;9.292;2023-07-13T13:16:30;26.50;72.70
73643;DHT22;61938;48.652;9.292;2023-07-13T13:18:58;26.40;73.10
73643;DHT22;61938;48.652;9.292;2023-07-13T13:21:24;26.40;70.50
73643;DHT22;61938;48.652;9.292;2023-07-13T13:23:51;26.40;70.70
73643;DHT22;61938;48.652;9.292;2023-07-13T13:26:19;26.80;72.90
73643;DHT22;61938;48.652;9.292;2023-07-13T13:28:45;27.30;71.30
73643;DHT22;61938;48.652;9.292;2023-07-13T13:31:13;27.50;67.90
73643;DHT22;61938;48.652;9.292;2023-07-13T13:33:43;27.60;68.00
73643;DHT22;61938;48.652;9.292;2023-07-13T13:36:18;27.80;71.00
73643;DHT22;61938;48.652;9.292;2023-07-13T13:38:45;27.70;69.40
73643;DHT22;61938;48.652;9.292;2023-07-13T13:41:12;27.50;71.10
73643;DHT22;61938;48.652;9.292;2023-07-13T13:43:39;27.30;70.50
73643;DHT22;61938;48.652;9.292;2023-07-13T13:46:14;27.00;71.00
73643;DHT22;61938;48.652;9.292;2023-07-13T13:48:40;26.70;68.80
73643;DHT22;61938;48.652;9.292;2023-07-13T13:51:17;26.60;70.40
73643;DHT22;61938;48.652;9.292;2023-07-13T13:53:44;27.20;73.40
73643;DHT22;61938;48.652;9.292;2023-07-13T13:56:11;27.40;72.80
73643;DHT22;61938;48.652;9.292;2023-07-13T13:58:36;27.70;70.00
73643;DHT22;61938;48.652;9.292;2023-07-13T14:01:02;28.30;68.10
73643;DHT22;61938;48.652;9.292;2023-07-13T14:03:28;28.30;68.20
73643;DHT22;61938;48.652;9.292;2023-07-13T14:05:54;27.90;66.70
73643;DHT22;61938;48.652;9.292;2023-07-13T14:08:22;27.60;68.10
73643;DHT22;61938;48.652;9.292;2023-07-13T14:10:49;27.30;67.10
73643;DHT22;61938;48.652;9.292;2023-07-13T14:13:21;27.20;69.20
73643;DHT22;61938;48.652;9.292;2023-07-13T14:15:47;27.50;70.00
73643;DHT22;61938;48.652;9.292;2023-07-13T14:18:13;27.80;70.00
73643;DHT22;61938;48.652;9.292;2023-07-13T14:20:44;27.60;66.60
73643;DHT22;61938;48.652;9.292;2023-07-13T14:23:10;27.20;69.00
73643;DHT22;61938;48.652;9.292;2023-07-13T14:25:36;26.70;67.60
73643;DHT22;61938;48.652;9.292;2023-07-13T14:28:24;26.90;68.10
73643;DHT22;61938;48.652;9.292;2023-07-13T14:30:51;27.10;63.60
73643;DHT22;61938;48.652;9.292;2023-07-13T14:33:16;27.30;70.10
73643;DHT22;61938;48.652;9.292;2023-07-13T14:35:42;27.60;65.90
73643;DHT22;61938;48.652;9.292;2023-07-13T14:38:14;27.10;65.10
73643;DHT22;61938;48.652;9.292;2023-07-13T14:40:41;26.80;65.40
73643;DHT22;61938;48.652;9.292;2023-07-13T14:43:13;26.60;65.70
73643;DHT22;61938;48.652;9.292;2023-07-13T14:45:41;26.30;68.50
73643;DHT22;61938;48.652;9.292;2023-07-13T14:48:22;26.20;67.20
73643;DHT22;61938;48.652;9.292;2023-07-13T14:50:54;26.20;67.90
73643;DHT22;61938;48.652;9.292;2023-07-13T14:53:20;25.90;68.20
73643;DHT22;61938;48.652;9.292;2023-07-13T14:55:45;25.90;67.40
73643;DHT22;61938;48.652;9.292;2023-07-13T14:58:11;25.80;68.00
73643;DHT22;61938;48.652;9.292;2023-07-13T15:00:39;25.80;70.20
73643;DHT22;61938;48.652;9.292;2023-07-13T15:03:06;25.70;69.30
73643;DHT22;61938;48.652;9.292;2023-07-13T15:05:39;25.90;70.30
73643;DHT22;61938;48.652;9.292;2023-07-13T15:08:05;26.20;68.90
73643;DHT22;61938;48.652;9.292;2023-07-13T15:10:32;26.50;69.90
73643;DHT22;61938;48.652;9.292;2023-07-13T15:13:19;26.70;68.20
73643;DHT22;61938;48.652;9.292;2023-07-13T15:15:51;26.60;67.20
73643;DHT22;61938;48.652;9.292;2023-07-13T15:18:20;28.60;70.50
73643;DHT22;61938;48.652;9.292;2023-07-13T15:20:47;26.20;68.00
73643;DHT22;61938;48.652;9.292;2023-07-13T15:23:14;26.10;66.90
73643;DHT22;61938;48.652;9.292;2023-07-13T15:25:41;25.90;67.50
73643;DHT22;61938;48.652;9.292;2023-07-13T15:28:07;25.80;69.40
73643;DHT22;61938;48.652;9.292;2023-07-13T15:30:43;25.80;70.90
73643;DHT22;61938;48.652;9.292;2023-07-13T15:35:45;26.30;67.40
73643;DHT22;61938;48.652;9.292;2023-07-13T15:38:20;26.20;70.30
73643;DHT22;61938;48.652;9.292;2023-07-13T15:40:48;26.10;69.40
73643;DHT22;61938;48.652;9.292;2023-07-13T15:43:15;25.90;69.50
73643;DHT22;61938;48.652;9.292;2023-07-13T15:45:41;25.80;71.60
73643;DHT22;61938;48.652;9.292;2023-07-13T15:48:14;25.90;70.40
73643;DHT22;61938;48.652;9.292;2023-07-13T15:50:44;26.00;68.30
73643;DHT22;61938;48.652;9.292;2023-07-13T15:53:10;26.10;70.20
73643;DHT22;61938;48.652;9.292;2023-07-13T15:55:39;26.10;69.90
73643;DHT22;61938;48.652;9.292;2023-07-13T15:58:12;26.20;69.60
73643;DHT22;61938;48.652;9.292;2023-07-13T16:00:39;25.90;69.00
73643;DHT22;61938;48.652;9.292;2023-07-13T16:03:05;25.70;70.60
73643;DHT22;61938;48.652;9.292;2023-07-13T16:05:31;25.50;70.90